createdAt,value
2019-06-01T00:00:12.299Z,64.32
2019-06-01T00:01:05.714Z,64.47
2019-06-01T00:01:59.100Z,64.64
2019-06-01T00:02:56.688Z,64.69
2019-06-01T00:03:48.841Z,64.76
2019-06-01T00:04:42.986Z,64.83
2019-06-01T00:05:38.387Z,64.98
2019-06-01T00:06:32.104Z,64.99
2019-06-01T00:07:26.089Z,64.90
2019-06-01T00:08:20.308Z,65.07
2019-06-01T00:09:15.085Z,65.29
2019-06-01T00:10:09.088Z,65.34
2019-06-01T00:11:03.486Z,65.31
2019-06-01T00:11:57.196Z,65.30
2019-06-01T00:12:52.510Z,65.33
2019-06-01T00:13:47.579Z,65.33
2019-06-01T00:14:43.646Z,65.42
2019-06-01T00:15:38.311Z,65.33
2019-06-01T00:16:32.181Z,65.34
2019-06-01T00:17:26.502Z,65.40
2019-06-01T00:18:20.886Z,65.36
2019-06-01T00:19:16.543Z,65.51
2019-06-01T00:20:11.015Z,65.56
2019-06-01T00:21:04.977Z,65.81
2019-06-01T00:21:59.751Z,65.80
2019-06-01T00:22:53.359Z,65.61
2019-06-01T00:23:48.677Z,65.71
2019-06-01T00:24:43.823Z,65.68
2019-06-01T00:25:38.568Z,65.79
2019-06-01T00:26:32.854Z,66.00
2019-06-01T00:27:28.131Z,66.09
2019-06-01T00:28:21.891Z,66.07
2019-06-01T00:29:16.405Z,65.95
2019-06-01T00:30:10.064Z,65.82
2019-06-01T00:31:04.344Z,65.95
2019-06-01T00:31:58.412Z,65.96
2019-06-01T00:32:53.010Z,66.00
2019-06-01T00:33:47.598Z,66.04
2019-06-01T00:34:45.721Z,66.29
2019-06-01T00:35:41.221Z,66.01
2019-06-01T00:36:35.634Z,66.15
2019-06-01T00:37:29.766Z,66.07
2019-06-01T00:38:24.766Z,66.14
2019-06-01T00:39:18.310Z,66.23
2019-06-01T00:40:13.561Z,65.90
2019-06-01T00:41:07.462Z,66.11
2019-06-01T00:42:02.249Z,66.19
2019-06-01T00:42:55.803Z,66.38
2019-06-01T00:43:50.514Z,66.51
2019-06-01T00:44:44.368Z,66.59
2019-06-01T00:45:38.878Z,66.55
2019-06-01T00:46:32.985Z,66.61
2019-06-01T00:47:27.628Z,66.84
2019-06-01T00:48:21.330Z,66.90
2019-06-01T00:49:15.636Z,66.98
2019-06-01T00:50:09.511Z,66.77
2019-06-01T00:51:03.800Z,66.78
2019-06-01T00:51:57.208Z,66.80
2019-06-01T00:52:54.584Z,66.45
2019-06-01T00:53:49.568Z,66.54
2019-06-01T00:54:45.247Z,66.68
2019-06-01T00:55:38.714Z,66.90
2019-06-01T00:56:32.869Z,66.82
2019-06-01T00:57:27.312Z,66.91
2019-06-01T00:58:21.837Z,66.85
2019-06-01T00:59:15.476Z,66.90
2019-06-01T01:00:10.172Z,66.90
2019-06-01T01:01:03.846Z,67.01
2019-06-01T01:01:58.214Z,67.09
2019-06-01T01:02:52.276Z,67.25
2019-06-01T01:03:48.113Z,67.11
2019-06-01T01:04:44.171Z,67.15
2019-06-01T01:05:38.993Z,67.37
2019-06-01T01:06:32.950Z,67.51
2019-06-01T01:07:27.988Z,67.60
2019-06-01T01:08:21.607Z,67.64
2019-06-01T01:09:16.093Z,67.57
2019-06-01T01:10:10.100Z,67.30
2019-06-01T01:11:04.410Z,67.42
2019-06-01T01:11:59.248Z,67.41
2019-06-01T01:13:15.421Z,67.35
2019-06-01T01:14:09.891Z,67.43
2019-06-01T01:15:05.161Z,67.40
2019-06-01T01:15:59.152Z,67.27
2019-06-01T01:16:54.160Z,67.33
2019-06-01T01:17:48.109Z,67.37
2019-06-01T01:18:42.827Z,67.49
2019-06-01T01:19:37.147Z,67.39
2019-06-01T01:20:31.078Z,67.39
2019-06-01T01:21:24.768Z,67.38
2019-06-01T01:22:19.440Z,67.43
2019-06-01T01:23:13.922Z,67.31
2019-06-01T01:24:08.651Z,67.56
2019-06-01T01:25:03.487Z,67.62
2019-06-01T01:25:57.733Z,67.76
2019-06-01T01:26:52.527Z,67.79
2019-06-01T01:27:46.562Z,67.70
2019-06-01T01:28:41.963Z,67.55
2019-06-01T01:29:36.028Z,67.48
2019-06-01T01:30:29.755Z,67.33
2019-06-01T01:31:23.779Z,67.35
2019-06-01T01:32:17.455Z,67.50
2019-06-01T01:33:12.099Z,67.58
2019-06-01T01:34:05.990Z,67.59
2019-06-01T01:35:00.578Z,67.65
2019-06-01T01:35:54.286Z,67.78
2019-06-01T01:36:49.701Z,67.85
2019-06-01T01:37:43.741Z,67.98
2019-06-01T01:38:37.809Z,68.10
2019-06-01T01:39:32.267Z,68.06
2019-06-01T01:40:26.135Z,68.04
2019-06-01T01:41:19.594Z,68.02
2019-06-01T01:42:13.534Z,67.94
2019-06-01T01:43:07.518Z,67.94
2019-06-01T01:44:01.752Z,67.91
2019-06-01T01:44:54.707Z,67.87
2019-06-01T01:45:48.906Z,67.98
2019-06-01T01:46:42.544Z,68.03
2019-06-01T01:47:36.329Z,67.96
2019-06-01T01:48:30.172Z,68.00
2019-06-01T01:49:23.836Z,67.97
2019-06-01T01:50:18.436Z,67.96
2019-06-01T01:51:11.920Z,68.16
2019-06-01T01:52:05.707Z,68.24
2019-06-01T01:52:59.664Z,68.26
2019-06-01T01:53:54.605Z,68.30
2019-06-01T01:54:48.371Z,68.38
2019-06-01T01:55:41.614Z,68.57
2019-06-01T01:56:36.044Z,68.53
2019-06-01T01:57:29.225Z,68.57
2019-06-01T01:58:23.157Z,68.56
2019-06-01T01:59:16.160Z,68.65
2019-06-01T02:00:13.041Z,68.44
2019-06-01T02:01:21.580Z,68.23
2019-06-01T02:02:01.313Z,68.38
2019-06-01T02:02:55.794Z,68.38
2019-06-01T02:03:51.334Z,68.48
2019-06-01T02:04:44.485Z,68.60
2019-06-01T02:05:39.324Z,68.60
2019-06-01T02:06:32.056Z,68.61
2019-06-01T02:07:25.921Z,68.55
2019-06-01T02:08:18.752Z,68.53
2019-06-01T02:09:13.142Z,68.62
2019-06-01T02:10:07.142Z,68.65
2019-06-01T02:11:01.823Z,68.82
2019-06-01T02:11:55.466Z,68.87
2019-06-01T02:12:49.789Z,68.81
2019-06-01T02:13:43.788Z,68.80
2019-06-01T02:14:37.104Z,68.69
2019-06-01T02:15:30.765Z,68.78
2019-06-01T02:16:24.355Z,68.93
2019-06-01T02:17:17.945Z,69.05
2019-06-01T02:18:12.563Z,69.09
2019-06-01T02:19:06.117Z,69.15
2019-06-01T02:20:00.277Z,68.92
2019-06-01T02:20:54.370Z,68.79
2019-06-01T02:21:48.624Z,68.72
2019-06-01T02:22:41.396Z,68.71
2019-06-01T02:23:35.098Z,68.69
2019-06-01T02:24:27.886Z,68.62
2019-06-01T02:25:21.392Z,68.50
2019-06-01T02:26:15.083Z,68.51
2019-06-01T02:27:08.663Z,68.64
2019-06-01T02:28:01.805Z,68.64
2019-06-01T02:28:55.356Z,68.61
2019-06-01T02:29:49.208Z,68.50
2019-06-01T02:30:42.754Z,68.46
2019-06-01T02:31:42.072Z,68.49
2019-06-01T02:32:32.244Z,68.54
2019-06-01T02:33:25.241Z,68.50
2019-06-01T02:34:18.406Z,68.44
2019-06-01T02:35:11.160Z,68.52
2019-06-01T02:36:05.339Z,68.56
2019-06-01T02:37:00.211Z,68.63
2019-06-01T02:37:54.706Z,68.66
2019-06-01T02:38:48.901Z,68.72
2019-06-01T02:39:43.352Z,68.84
2019-06-01T02:40:36.761Z,68.36
2019-06-01T02:41:30.513Z,68.64
2019-06-01T02:42:23.388Z,68.92
2019-06-01T02:43:18.025Z,69.01
2019-06-01T02:44:11.166Z,69.25
2019-06-01T02:45:05.741Z,69.41
2019-06-01T02:46:00.494Z,69.50
2019-06-01T02:46:55.377Z,69.78
2019-06-01T02:47:48.950Z,69.95
2019-06-01T02:48:42.223Z,69.90
2019-06-01T02:49:36.740Z,69.92
2019-06-01T02:50:30.380Z,70.03
2019-06-01T02:51:24.521Z,70.01
2019-06-01T02:52:18.309Z,70.02
2019-06-01T02:53:11.486Z,70.05
2019-06-01T02:54:06.412Z,70.14
2019-06-01T02:54:59.813Z,70.08
2019-06-01T02:55:54.305Z,70.00
2019-06-01T02:56:48.034Z,70.07
2019-06-01T02:57:42.051Z,70.14
2019-06-01T02:58:35.121Z,70.17
2019-06-01T02:59:29.235Z,70.29
2019-06-01T03:01:12.398Z,70.36
2019-06-01T03:02:10.637Z,70.44
2019-06-01T03:03:02.668Z,70.50
2019-06-01T03:03:57.643Z,70.56
2019-06-01T03:04:51.167Z,70.51
2019-06-01T03:05:47.016Z,70.38
2019-06-01T03:06:44.317Z,70.62
2019-06-01T03:07:42.775Z,70.57
2019-06-01T03:08:37.618Z,70.44
2019-06-01T03:09:33.103Z,70.56
2019-06-01T03:10:27.750Z,70.56
2019-06-01T03:11:23.048Z,70.41
2019-06-01T03:12:19.681Z,70.55
2019-06-01T03:13:15.887Z,70.43
2019-06-01T03:14:11.068Z,70.44
2019-06-01T03:15:08.585Z,70.28
2019-06-01T03:16:03.444Z,70.43
2019-06-01T03:17:01.912Z,70.55
2019-06-01T03:17:59.370Z,70.73
2019-06-01T03:18:55.624Z,70.83
2019-06-01T03:19:50.890Z,71.14
2019-06-01T03:20:47.387Z,71.16
2019-06-01T03:21:42.095Z,70.88
2019-06-01T03:22:37.516Z,70.93
2019-06-01T03:23:33.777Z,71.04
2019-06-01T03:24:27.498Z,71.21
2019-06-01T03:25:21.434Z,71.14
2019-06-01T03:26:18.166Z,70.70
2019-06-01T03:27:15.364Z,70.87
2019-06-01T03:28:12.506Z,71.05
2019-06-01T03:29:07.287Z,71.16
2019-06-01T03:30:05.300Z,71.35
2019-06-01T03:30:56.917Z,71.15
2019-06-01T03:31:51.232Z,70.90
2019-06-01T03:32:44.097Z,71.35
2019-06-01T03:33:38.136Z,71.52
2019-06-01T03:34:31.999Z,71.34
2019-06-01T03:35:25.910Z,71.45
2019-06-01T03:36:20.140Z,71.54
2019-06-01T03:37:14.389Z,71.81
2019-06-01T03:38:09.262Z,72.00
2019-06-01T03:39:04.006Z,72.05
2019-06-01T03:39:57.192Z,71.87
2019-06-01T03:40:51.320Z,71.54
2019-06-01T03:41:45.363Z,71.49
2019-06-01T03:42:40.812Z,71.56
2019-06-01T03:43:33.832Z,71.52
2019-06-01T03:44:28.520Z,71.80
2019-06-01T03:45:21.636Z,71.98
2019-06-01T03:46:16.598Z,72.01
2019-06-01T03:47:11.666Z,72.05
2019-06-01T03:48:06.725Z,72.13
2019-06-01T03:48:59.816Z,72.20
2019-06-01T03:49:53.806Z,72.00
2019-06-01T03:50:47.455Z,72.30
2019-06-01T03:51:41.620Z,72.32
2019-06-01T03:52:35.000Z,72.55
2019-06-01T03:53:28.819Z,72.70
2019-06-01T03:54:22.110Z,72.69
2019-06-01T03:55:16.707Z,72.82
2019-06-01T03:56:11.049Z,73.05
2019-06-01T03:57:05.407Z,73.22
2019-06-01T03:57:59.065Z,73.23
2019-06-01T03:58:52.997Z,73.24
2019-06-01T03:59:47.090Z,73.27
2019-06-01T04:00:41.870Z,73.28
2019-06-01T04:01:35.706Z,73.31
2019-06-01T04:02:33.094Z,73.38
2019-06-01T04:03:25.305Z,73.65
2019-06-01T04:04:19.825Z,73.76
2019-06-01T04:05:13.662Z,73.78
2019-06-01T04:06:09.334Z,73.83
2019-06-01T04:07:03.425Z,73.87
2019-06-01T04:07:58.195Z,73.84
2019-06-01T04:08:51.160Z,73.39
2019-06-01T04:09:46.027Z,73.34
2019-06-01T04:10:40.117Z,73.34
2019-06-01T04:11:35.178Z,73.13
2019-06-01T04:12:28.629Z,73.05
2019-06-01T04:13:22.627Z,72.80
2019-06-01T04:14:15.839Z,73.05
2019-06-01T04:15:13.627Z,73.09
2019-06-01T04:16:05.833Z,72.71
2019-06-01T04:17:01.880Z,72.64
2019-06-01T04:17:56.437Z,72.80
2019-06-01T04:18:51.193Z,72.28
2019-06-01T04:19:43.821Z,72.51
2019-06-01T04:20:38.483Z,72.40
2019-06-01T04:21:31.992Z,72.16
2019-06-01T04:22:27.052Z,72.34
2019-06-01T04:23:20.862Z,72.43
2019-06-01T04:24:14.810Z,72.43
2019-06-01T04:25:10.319Z,72.58
2019-06-01T04:26:04.157Z,72.36
2019-06-01T04:26:57.286Z,72.24
2019-06-01T04:27:50.979Z,71.79
2019-06-01T04:28:44.368Z,71.87
2019-06-01T04:29:38.400Z,71.90
2019-06-01T04:30:31.780Z,71.01
2019-06-01T04:31:26.157Z,70.83
2019-06-01T04:32:18.957Z,70.92
2019-06-01T04:33:13.997Z,71.02
2019-06-01T04:34:07.374Z,71.27
2019-06-01T04:35:03.144Z,71.32
2019-06-01T04:35:56.333Z,71.30
2019-06-01T04:36:50.225Z,71.13
2019-06-01T04:37:43.642Z,71.26
2019-06-01T04:38:37.644Z,71.40
2019-06-01T04:39:31.097Z,71.53
2019-06-01T04:40:25.128Z,71.50
2019-06-01T04:41:18.564Z,71.56
2019-06-01T04:42:13.938Z,71.60
2019-06-01T04:43:07.863Z,71.68
2019-06-01T04:44:03.781Z,71.72
2019-06-01T04:44:57.223Z,71.48
2019-06-01T04:45:51.188Z,71.26
2019-06-01T04:46:44.655Z,71.05
2019-06-01T04:47:38.921Z,71.11
2019-06-01T04:48:31.924Z,71.01
2019-06-01T04:49:26.278Z,70.95
2019-06-01T04:50:19.507Z,70.45
2019-06-01T04:51:13.554Z,70.34
2019-06-01T04:52:06.843Z,70.11
2019-06-01T04:53:01.089Z,70.17
2019-06-01T04:53:54.235Z,70.24
2019-06-01T04:54:48.929Z,70.37
2019-06-01T04:55:42.777Z,70.62
2019-06-01T04:56:37.065Z,70.96
2019-06-01T04:57:30.732Z,71.06
2019-06-01T04:58:24.288Z,71.16
2019-06-01T04:59:17.987Z,71.26
2019-06-01T05:00:25.947Z,71.19
2019-06-01T05:01:09.006Z,71.20
2019-06-01T05:02:03.368Z,71.16
2019-06-01T05:03:04.751Z,71.01
2019-06-01T05:03:52.210Z,71.00
2019-06-01T05:04:45.630Z,70.85
2019-06-01T05:05:39.606Z,70.91
2019-06-01T05:06:32.992Z,70.48
2019-06-01T05:07:26.597Z,69.94
2019-06-01T05:08:19.297Z,69.99
2019-06-01T05:09:13.413Z,70.16
2019-06-01T05:10:07.423Z,70.16
2019-06-01T05:11:05.045Z,70.24
2019-06-01T05:11:57.098Z,70.10
2019-06-01T05:12:51.613Z,70.01
2019-06-01T05:13:44.884Z,69.78
2019-06-01T05:14:38.987Z,69.22
2019-06-01T05:15:31.921Z,69.37
2019-06-01T05:16:26.048Z,69.49
2019-06-01T05:17:19.515Z,69.57
2019-06-01T05:18:14.253Z,69.45
2019-06-01T05:19:08.222Z,69.18
2019-06-01T05:20:02.166Z,69.10
2019-06-01T05:20:56.218Z,69.07
2019-06-01T05:21:49.790Z,68.99
2019-06-01T05:22:43.014Z,69.05
2019-06-01T05:23:37.605Z,68.90
2019-06-01T05:24:30.932Z,68.95
2019-06-01T05:25:24.583Z,68.73
2019-06-01T05:26:18.712Z,68.86
2019-06-01T05:27:13.144Z,68.33
2019-06-01T05:28:07.035Z,68.53
2019-06-01T05:29:01.048Z,68.87
2019-06-01T05:29:54.082Z,69.09
2019-06-01T05:30:48.583Z,69.15
2019-06-01T05:31:42.036Z,68.93
2019-06-01T05:32:36.393Z,68.61
2019-06-01T05:33:37.445Z,68.15
2019-06-01T05:34:25.758Z,68.15
2019-06-01T05:35:19.056Z,67.86
2019-06-01T05:36:12.384Z,68.01
2019-06-01T05:37:06.312Z,67.76
2019-06-01T05:38:00.407Z,67.78
2019-06-01T05:38:53.547Z,68.10
2019-06-01T05:39:48.369Z,68.04
2019-06-01T05:40:42.563Z,67.98
2019-06-01T05:41:36.980Z,67.57
2019-06-01T05:42:30.309Z,67.06
2019-06-01T05:43:24.734Z,67.04
2019-06-01T05:44:19.226Z,67.19
2019-06-01T05:45:15.127Z,67.27
2019-06-01T05:46:09.879Z,67.33
2019-06-01T05:47:03.832Z,67.69
2019-06-01T05:47:57.389Z,67.46
2019-06-01T05:48:51.933Z,67.36
2019-06-01T05:49:45.544Z,67.40
2019-06-01T05:50:39.824Z,67.15
2019-06-01T05:51:34.054Z,67.27
2019-06-01T05:52:28.629Z,67.07
2019-06-01T05:53:23.094Z,67.07
2019-06-01T05:54:18.753Z,66.65
2019-06-01T05:56:06.854Z,65.78
2019-06-01T05:57:01.143Z,66.09
2019-06-01T05:57:55.294Z,65.91
2019-06-01T05:58:48.913Z,65.31
2019-06-01T05:59:42.938Z,65.34
2019-06-01T06:00:42.046Z,65.15
2019-06-01T06:01:36.327Z,65.38
2019-06-01T06:02:31.039Z,65.30
2019-06-01T06:03:39.542Z,64.94
2019-06-01T06:04:21.623Z,64.75
2019-06-01T06:05:16.642Z,65.18
2019-06-01T06:06:11.680Z,65.79
2019-06-01T06:07:06.190Z,65.75
2019-06-01T06:08:00.343Z,65.49
2019-06-01T06:08:54.147Z,65.60
2019-06-01T06:09:48.506Z,65.77
2019-06-01T06:10:42.382Z,65.82
2019-06-01T06:11:36.366Z,65.63
2019-06-01T06:12:30.609Z,65.09
2019-06-01T06:13:25.119Z,65.08
2019-06-01T06:14:21.007Z,65.01
2019-06-01T06:15:15.709Z,64.79
2019-06-01T06:16:11.573Z,64.62
2019-06-01T06:17:05.603Z,64.85
2019-06-01T06:17:59.545Z,64.88
2019-06-01T06:18:53.383Z,64.49
2019-06-01T06:19:47.860Z,64.13
2019-06-01T06:20:41.671Z,63.87
2019-06-01T06:21:36.260Z,63.71
2019-06-01T06:22:30.487Z,63.75
2019-06-01T06:23:24.449Z,64.27
2019-06-01T06:24:18.904Z,64.31
2019-06-01T06:25:14.259Z,64.56
2019-06-01T06:26:08.614Z,64.27
2019-06-01T06:27:03.553Z,63.96
2019-06-01T06:27:57.785Z,63.88
2019-06-01T06:28:52.110Z,63.77
2019-06-01T06:29:46.239Z,63.44
2019-06-01T06:30:41.378Z,63.12
2019-06-01T06:31:35.383Z,62.45
2019-06-01T06:32:29.769Z,62.55
2019-06-01T06:33:24.114Z,62.82
2019-06-01T06:34:19.613Z,62.66
2019-06-01T06:35:13.939Z,62.23
2019-06-01T06:36:08.104Z,62.24
2019-06-01T06:37:02.456Z,62.04
2019-06-01T06:37:56.975Z,62.20
2019-06-01T06:38:51.194Z,62.01
2019-06-01T06:39:45.845Z,61.73
2019-06-01T06:40:39.750Z,61.78
2019-06-01T06:41:33.872Z,61.68
2019-06-01T06:42:28.371Z,61.37
2019-06-01T06:43:30.997Z,61.98
2019-06-01T06:44:18.532Z,61.81
2019-06-01T06:45:12.926Z,61.40
2019-06-01T06:46:06.890Z,61.05
2019-06-01T06:47:01.551Z,60.61
2019-06-01T06:47:56.799Z,60.86
2019-06-01T06:48:51.208Z,60.71
2019-06-01T06:49:45.215Z,60.46
2019-06-01T06:50:39.246Z,60.42
2019-06-01T06:51:33.468Z,60.39
2019-06-01T06:52:28.060Z,61.30
2019-06-01T06:53:28.447Z,61.43
2019-06-01T06:54:17.946Z,60.71
2019-06-01T06:55:13.013Z,60.59
2019-06-01T06:56:07.426Z,60.12
2019-06-01T06:57:01.555Z,60.10
2019-06-01T06:57:55.863Z,60.05
2019-06-01T06:58:50.476Z,60.41
2019-06-01T06:59:44.552Z,60.68
2019-06-01T07:00:38.901Z,60.60
2019-06-01T07:01:33.003Z,60.32
2019-06-01T07:02:27.488Z,60.29
2019-06-01T07:03:23.087Z,60.49
2019-06-01T07:04:19.289Z,59.72
2019-06-01T07:05:14.244Z,59.17
2019-06-01T07:06:07.837Z,59.02
2019-06-01T07:07:01.579Z,58.95
2019-06-01T07:07:55.778Z,58.13
2019-06-01T07:08:49.594Z,58.29
2019-06-01T07:09:43.969Z,58.21
2019-06-01T07:10:38.009Z,57.99
2019-06-01T07:11:32.063Z,57.98
2019-06-01T07:12:26.390Z,57.51
2019-06-01T07:13:21.537Z,57.26
2019-06-01T07:14:15.361Z,57.54
2019-06-01T07:15:09.820Z,57.59
2019-06-01T07:16:04.138Z,57.60
2019-06-01T07:16:58.070Z,57.57
2019-06-01T07:17:52.456Z,57.61
2019-06-01T07:18:47.220Z,57.73
2019-06-01T07:19:41.986Z,57.34
2019-06-01T07:20:35.776Z,57.23
2019-06-01T07:21:29.840Z,57.13
2019-06-01T07:22:24.059Z,57.20
2019-06-01T07:23:19.560Z,57.69
2019-06-01T07:24:13.876Z,57.51
2019-06-01T07:25:09.770Z,57.46
2019-06-01T07:26:03.614Z,57.52
2019-06-01T07:26:57.948Z,57.17
2019-06-01T07:27:52.013Z,57.33
2019-06-01T07:28:46.585Z,57.20
2019-06-01T07:29:40.647Z,57.48
2019-06-01T07:30:49.728Z,57.28
2019-06-01T07:31:32.509Z,56.86
2019-06-01T07:32:26.775Z,56.44
2019-06-01T07:33:22.395Z,56.48
2019-06-01T07:34:32.122Z,56.16
2019-06-01T07:35:12.750Z,56.40
2019-06-01T07:36:06.905Z,56.13
2019-06-01T07:37:00.982Z,55.64
2019-06-01T07:37:55.706Z,55.75
2019-06-01T07:38:49.248Z,55.86
2019-06-01T07:39:44.206Z,56.64
2019-06-01T07:40:38.323Z,56.37
2019-06-01T07:41:33.047Z,56.28
2019-06-01T07:42:28.192Z,55.72
2019-06-01T07:43:24.726Z,55.25
2019-06-01T07:44:18.755Z,55.58
2019-06-01T07:45:13.475Z,55.55
2019-06-01T07:46:07.682Z,54.86
2019-06-01T07:47:01.855Z,54.47
2019-06-01T07:47:56.575Z,55.06
2019-06-01T07:48:51.348Z,55.04
2019-06-01T07:49:45.415Z,55.04
2019-06-01T07:50:40.074Z,55.28
2019-06-01T07:51:34.307Z,55.50
2019-06-01T07:52:28.551Z,55.29
2019-06-01T07:53:24.089Z,54.80
2019-06-01T07:54:18.039Z,54.41
2019-06-01T07:55:12.957Z,54.69
2019-06-01T07:56:06.790Z,54.62
2019-06-01T07:57:00.858Z,54.44
2019-06-01T07:57:55.806Z,54.45
2019-06-01T07:58:49.890Z,54.69
2019-06-01T07:59:43.788Z,54.93
2019-06-01T08:00:37.772Z,54.94
2019-06-01T08:01:32.869Z,54.94
2019-06-01T08:02:29.450Z,54.83
2019-06-01T08:03:26.546Z,54.49
2019-06-01T08:04:19.357Z,54.28
2019-06-01T08:05:13.644Z,53.89
2019-06-01T08:06:07.517Z,53.61
2019-06-01T08:07:01.745Z,53.66
2019-06-01T08:07:55.591Z,53.87
2019-06-01T08:08:49.334Z,53.04
2019-06-01T08:09:43.371Z,52.88
2019-06-01T08:10:37.498Z,54.02
2019-06-01T08:11:34.623Z,54.12
2019-06-01T08:12:27.531Z,53.99
2019-06-01T08:13:21.941Z,54.32
2019-06-01T08:14:16.108Z,54.11
2019-06-01T08:15:10.519Z,53.86
2019-06-01T08:16:04.471Z,53.72
2019-06-01T08:16:58.637Z,53.38
2019-06-01T08:17:53.136Z,53.07
2019-06-01T08:18:47.631Z,53.26
2019-06-01T08:19:41.980Z,52.91
2019-06-01T08:20:36.287Z,52.44
2019-06-01T08:21:30.351Z,51.87
2019-06-01T08:22:25.899Z,51.95
2019-06-01T08:23:20.420Z,52.08
2019-06-01T08:24:14.610Z,51.82
2019-06-01T08:25:08.864Z,51.83
2019-06-01T08:26:02.893Z,52.03
2019-06-01T08:26:57.003Z,51.32
2019-06-01T08:27:51.263Z,49.98
2019-06-01T08:28:45.556Z,50.33
2019-06-01T08:29:39.981Z,50.51
2019-06-01T08:30:34.318Z,50.43
2019-06-01T08:31:28.896Z,50.33
2019-06-01T08:32:24.561Z,50.44
2019-06-01T08:33:18.961Z,50.32
2019-06-01T08:34:13.653Z,50.01
2019-06-01T08:35:09.740Z,50.23
2019-06-01T08:36:03.886Z,50.48
2019-06-01T08:36:58.065Z,51.46
2019-06-01T08:37:52.471Z,51.84
2019-06-01T08:38:46.852Z,51.48
2019-06-01T08:39:40.781Z,51.29
2019-06-01T08:40:35.106Z,51.00
2019-06-01T08:41:29.903Z,49.84
2019-06-01T08:42:25.261Z,49.48
2019-06-01T08:43:19.720Z,49.42
2019-06-01T08:44:14.078Z,48.48
2019-06-01T08:45:08.508Z,48.49
2019-06-01T08:46:03.184Z,47.97
2019-06-01T08:46:57.311Z,48.33
2019-06-01T08:47:51.751Z,49.03
2019-06-01T08:48:45.861Z,48.21
2019-06-01T08:49:40.719Z,48.14
2019-06-01T08:50:34.826Z,49.62
2019-06-01T08:51:29.933Z,49.52
2019-06-01T08:52:24.447Z,49.27
2019-06-01T08:53:19.995Z,49.13
2019-06-01T08:54:13.918Z,49.53
2019-06-01T08:55:08.635Z,49.55
2019-06-01T08:56:02.731Z,49.27
2019-06-01T08:56:56.554Z,49.35
2019-06-01T08:57:51.024Z,49.59
2019-06-01T08:58:45.213Z,49.13
2019-06-01T08:59:39.713Z,48.27
2019-06-01T09:00:34.746Z,48.17
2019-06-01T09:01:30.526Z,48.21
2019-06-01T09:02:26.497Z,47.51
2019-06-01T09:03:21.501Z,47.90
2019-06-01T09:04:15.323Z,47.20
2019-06-01T09:05:23.261Z,47.18
2019-06-01T09:06:05.648Z,47.24
2019-06-01T09:07:00.091Z,47.11
2019-06-01T09:07:55.160Z,47.13
2019-06-01T09:08:49.339Z,46.66
2019-06-01T09:09:43.727Z,47.06
2019-06-01T09:10:38.022Z,47.54
2019-06-01T09:11:31.472Z,46.74
2019-06-01T09:12:25.421Z,47.18
2019-06-01T09:13:19.192Z,46.84
2019-06-01T09:14:13.429Z,46.70
2019-06-01T09:15:08.006Z,45.73
2019-06-01T09:16:02.728Z,45.94
2019-06-01T09:16:56.941Z,45.72
2019-06-01T09:17:51.020Z,45.65
2019-06-01T09:18:45.579Z,45.87
2019-06-01T09:19:39.566Z,45.97
2019-06-01T09:20:36.957Z,45.78
2019-06-01T09:21:29.510Z,45.33
2019-06-01T09:22:23.681Z,45.06
2019-06-01T09:23:18.763Z,44.67
2019-06-01T09:24:12.422Z,44.75
2019-06-01T09:25:06.863Z,45.00
2019-06-01T09:26:01.102Z,45.30
2019-06-01T09:26:55.498Z,44.90
2019-06-01T09:27:50.035Z,44.48
2019-06-01T09:28:44.792Z,44.24
2019-06-01T09:29:39.935Z,44.39
2019-06-01T09:30:34.453Z,44.60
2019-06-01T09:31:30.238Z,44.47
2019-06-01T09:32:25.998Z,44.49
2019-06-01T09:33:19.995Z,44.41
2019-06-01T09:34:14.195Z,44.11
2019-06-01T09:35:09.454Z,43.83
2019-06-01T09:36:03.404Z,43.53
2019-06-01T09:36:57.740Z,43.77
2019-06-01T09:37:52.425Z,43.71
2019-06-01T09:38:46.369Z,43.82
2019-06-01T09:39:40.366Z,43.90
2019-06-01T09:40:35.096Z,44.40
2019-06-01T09:41:30.401Z,44.41
2019-06-01T09:42:24.549Z,44.62
2019-06-01T09:43:19.016Z,44.43
2019-06-01T09:44:12.903Z,44.33
2019-06-01T09:45:07.265Z,44.14
2019-06-01T09:46:01.310Z,43.84
2019-06-01T09:46:55.035Z,43.71
2019-06-01T09:47:49.244Z,43.54
2019-06-01T09:48:43.776Z,43.50
2019-06-01T09:49:38.068Z,43.53
2019-06-01T09:50:33.438Z,43.14
2019-06-01T09:51:27.634Z,42.88
2019-06-01T09:52:21.398Z,43.31
2019-06-01T09:53:15.281Z,43.38
2019-06-01T09:54:09.873Z,43.62
2019-06-01T09:55:04.410Z,43.56
2019-06-01T09:55:58.708Z,43.65
2019-06-01T09:56:52.546Z,43.80
2019-06-01T09:57:47.024Z,43.33
2019-06-01T09:58:41.674Z,43.48
2019-06-01T09:59:36.098Z,43.25
2019-06-01T10:00:30.368Z,43.15
2019-06-01T10:01:24.661Z,43.22
2019-06-01T10:02:18.653Z,43.11
2019-06-01T10:03:13.458Z,43.21
2019-06-01T10:04:09.320Z,42.93
2019-06-01T10:05:03.191Z,42.12
2019-06-01T10:06:01.714Z,42.26
2019-06-01T10:06:53.268Z,42.12
2019-06-01T10:08:18.133Z,41.24
2019-06-01T10:09:13.197Z,41.39
2019-06-01T10:10:07.350Z,41.28
2019-06-01T10:11:01.415Z,40.67
2019-06-01T10:11:55.557Z,40.42
2019-06-01T10:12:51.080Z,39.98
2019-06-01T10:13:45.023Z,39.80
2019-06-01T10:14:39.554Z,40.22
2019-06-01T10:15:34.347Z,40.39
2019-06-01T10:16:30.406Z,39.63
2019-06-01T10:17:25.390Z,39.53
2019-06-01T10:18:19.715Z,39.32
2019-06-01T10:19:13.085Z,39.09
2019-06-01T10:20:07.183Z,39.35
2019-06-01T10:21:01.467Z,39.14
2019-06-01T10:21:55.576Z,39.00
2019-06-01T10:22:50.242Z,38.93
2019-06-01T10:23:48.967Z,38.75
2019-06-01T10:24:41.341Z,38.75
2019-06-01T10:25:36.466Z,38.65
2019-06-01T10:26:31.325Z,38.80
2019-06-01T10:27:26.034Z,38.59
2019-06-01T10:28:19.900Z,38.77
2019-06-01T10:29:13.733Z,39.07
2019-06-01T10:30:09.102Z,39.42
2019-06-01T10:31:03.467Z,39.24
2019-06-01T10:31:57.725Z,38.84
2019-06-01T10:32:52.087Z,38.81
2019-06-01T10:33:46.037Z,38.91
2019-06-01T10:34:40.193Z,38.92
2019-06-01T10:35:34.933Z,39.00
2019-06-01T10:36:29.674Z,39.29
2019-06-01T10:37:23.857Z,39.59
2019-06-01T10:38:18.776Z,39.13
2019-06-01T10:39:12.944Z,38.82
2019-06-01T10:40:07.774Z,38.58
2019-06-01T10:41:02.409Z,38.48
2019-06-01T10:41:57.162Z,38.35
2019-06-01T10:42:54.669Z,38.46
2019-06-01T10:43:49.056Z,38.43
2019-06-01T10:44:45.674Z,38.22
2019-06-01T10:45:39.853Z,38.65
2019-06-01T10:46:33.990Z,38.79
2019-06-01T10:47:28.077Z,38.86
2019-06-01T10:48:22.397Z,38.92
2019-06-01T10:49:16.514Z,38.65
2019-06-01T10:50:10.259Z,38.38
2019-06-01T10:51:05.372Z,38.27
2019-06-01T10:51:59.111Z,38.61
2019-06-01T10:52:53.034Z,38.40
2019-06-01T10:53:46.892Z,37.74
2019-06-01T10:54:42.437Z,37.45
2019-06-01T10:55:36.466Z,37.19
2019-06-01T10:56:32.319Z,36.87
2019-06-01T10:57:27.248Z,36.87
2019-06-01T10:58:21.245Z,36.68
2019-06-01T10:59:14.547Z,36.59
2019-06-01T11:00:09.282Z,36.51
2019-06-01T11:01:03.383Z,36.25
2019-06-01T11:01:57.853Z,36.23
2019-06-01T11:02:52.320Z,36.03
2019-06-01T11:03:46.667Z,36.13
2019-06-01T11:04:41.143Z,35.76
2019-06-01T11:05:36.651Z,34.76
2019-06-01T11:06:38.856Z,35.55
2019-06-01T11:07:26.649Z,35.79
2019-06-01T11:08:20.699Z,36.58
2019-06-01T11:09:14.900Z,36.90
2019-06-01T11:10:10.430Z,37.55
2019-06-01T11:11:05.207Z,37.55
2019-06-01T11:11:59.530Z,37.55
2019-06-01T11:12:54.403Z,37.00
2019-06-01T11:13:49.389Z,36.71
2019-06-01T11:14:43.459Z,36.33
2019-06-01T11:15:37.527Z,36.31
2019-06-01T11:16:31.364Z,35.88
2019-06-01T11:17:25.630Z,35.87
2019-06-01T11:18:20.281Z,35.28
2019-06-01T11:19:14.592Z,35.05
2019-06-01T11:20:08.609Z,35.75
2019-06-01T11:21:03.809Z,35.67
2019-06-01T11:21:57.554Z,35.37
2019-06-01T11:22:51.911Z,35.07
2019-06-01T11:23:46.625Z,34.68
2019-06-01T11:24:41.693Z,34.46
2019-06-01T11:25:35.706Z,34.13
2019-06-01T11:26:29.972Z,33.81
2019-06-01T11:27:24.219Z,34.05
2019-06-01T11:28:18.569Z,33.73
2019-06-01T11:29:13.081Z,33.30
2019-06-01T11:30:09.746Z,32.99
2019-06-01T11:31:03.289Z,32.69
2019-06-01T11:31:57.940Z,32.45
2019-06-01T11:32:52.500Z,32.62
2019-06-01T11:33:47.296Z,33.02
2019-06-01T11:34:42.472Z,32.93
2019-06-01T11:35:37.213Z,32.67
2019-06-01T11:36:31.636Z,32.73
2019-06-01T11:37:25.892Z,32.03
2019-06-01T11:38:20.146Z,32.08
2019-06-01T11:39:14.825Z,32.55
2019-06-01T11:40:09.421Z,32.90
2019-06-01T11:41:03.673Z,33.76
2019-06-01T11:41:58.123Z,33.86
2019-06-01T11:42:51.841Z,33.57